createdAt,value
2018-09-15T00:01:07.673Z,11.43
2018-09-15T00:03:38.962Z,11.27
2018-09-15T00:06:09.042Z,10.33
2018-09-15T00:08:38.598Z,11.83
2018-09-15T00:11:08.228Z,14.40
2018-09-15T00:13:38.707Z,12.37
2018-09-15T00:16:08.293Z,11.70
2018-09-15T00:18:38.117Z,17.23
2018-09-15T00:21:07.576Z,9.83
2018-09-15T00:23:37.067Z,9.50
2018-09-15T00:26:07.313Z,10.77
2018-09-15T00:28:37.913Z,8.20
2018-09-15T00:31:07.793Z,7.80
2018-09-15T00:33:37.898Z,7.97
2018-09-15T00:36:07.624Z,10.33
2018-09-15T00:38:37.345Z,8.27
2018-09-15T00:41:06.948Z,8.07
2018-09-15T00:43:36.890Z,7.50
2018-09-15T00:46:06.423Z,9.00
2018-09-15T00:48:36.059Z,11.13
2018-09-15T00:51:05.822Z,11.37
2018-09-15T00:53:35.787Z,10.27
2018-09-15T00:56:05.839Z,7.57
2018-09-15T00:58:36.435Z,10.20
2018-09-15T01:01:06.942Z,8.70
2018-09-15T01:03:37.413Z,9.13
2018-09-15T01:06:07.160Z,7.57
2018-09-15T01:08:37.412Z,9.77
2018-09-15T01:11:07.314Z,7.10
2018-09-15T01:13:37.017Z,9.43
2018-09-15T01:16:06.849Z,11.10
2018-09-15T01:18:36.521Z,12.50
2018-09-15T01:21:07.082Z,7.83
2018-09-15T01:23:36.726Z,8.63
2018-09-15T01:26:06.616Z,8.60
2018-09-15T01:28:37.018Z,11.20
2018-09-15T01:31:07.551Z,10.33
2018-09-15T01:33:36.998Z,7.67
2018-09-15T01:36:07.303Z,7.87
2018-09-15T01:38:37.587Z,7.60
2018-09-15T01:41:07.522Z,7.30
2018-09-15T01:43:37.616Z,8.00
2018-09-15T01:46:08.417Z,8.23
2018-09-15T01:48:38.047Z,9.53
2018-09-15T01:51:08.199Z,9.50
2018-09-15T01:53:38.368Z,10.03
2018-09-15T01:56:07.965Z,8.23
2018-09-15T01:58:37.537Z,8.43
2018-09-15T02:01:08.553Z,10.00
2018-09-15T02:03:38.454Z,9.40
2018-09-15T02:06:08.103Z,7.80
2018-09-15T02:08:37.705Z,8.63
2018-09-15T02:11:07.195Z,9.87
2018-09-15T02:13:37.494Z,11.77
2018-09-15T02:16:07.259Z,11.97
2018-09-15T02:18:36.847Z,11.23
2018-09-15T02:21:07.275Z,10.97
2018-09-15T02:23:37.280Z,12.23
2018-09-15T02:26:06.785Z,15.00
2018-09-15T02:28:37.816Z,14.17
2018-09-15T02:31:08.167Z,8.93
2018-09-15T02:33:41.960Z,9.97
2018-09-15T02:36:11.439Z,9.80
2018-09-15T02:38:41.117Z,13.90
2018-09-15T02:41:10.847Z,15.40
2018-09-15T02:43:40.959Z,21.63
2018-09-15T02:46:11.155Z,20.57
2018-09-15T02:48:40.539Z,14.27
2018-09-15T02:51:10.353Z,14.90
2018-09-15T02:53:40.205Z,12.80
2018-09-15T02:56:09.783Z,11.67
2018-09-15T02:58:39.303Z,17.43
2018-09-15T03:01:10.076Z,9.40
2018-09-15T03:03:39.638Z,16.40
2018-09-15T03:06:09.859Z,10.73
2018-09-15T03:08:39.371Z,14.03
2018-09-15T03:11:08.948Z,18.17
2018-09-15T03:13:39.162Z,17.43
2018-09-15T03:16:09.490Z,18.30
2018-09-15T03:18:38.978Z,21.70
2018-09-15T03:21:09.172Z,21.10
2018-09-15T03:23:39.672Z,20.10
2018-09-15T03:26:09.343Z,21.60
2018-09-15T03:28:39.077Z,17.70
2018-09-15T03:31:08.820Z,20.13
2018-09-15T03:33:38.872Z,19.47
2018-09-15T03:36:08.504Z,18.50
2018-09-15T03:38:38.034Z,19.13
2018-09-15T03:41:07.959Z,19.37
2018-09-15T03:43:37.669Z,18.70
2018-09-15T03:46:08.088Z,15.93
2018-09-15T03:48:38.235Z,16.50
2018-09-15T03:51:07.794Z,18.03
2018-09-15T03:53:38.547Z,22.30
2018-09-15T03:56:08.651Z,23.63
2018-09-15T03:58:38.390Z,24.27
2018-09-15T04:01:08.135Z,28.10
2018-09-15T04:03:38.189Z,25.47
2018-09-15T04:06:08.509Z,30.27
2018-09-15T04:08:38.045Z,29.33
2018-09-15T04:11:07.781Z,22.63
2018-09-15T04:13:37.349Z,20.73
2018-09-15T04:16:06.953Z,24.40
2018-09-15T04:18:37.047Z,24.50
2018-09-15T04:21:07.473Z,22.73
2018-09-15T04:23:41.827Z,22.30
2018-09-15T04:26:12.273Z,22.07
2018-09-15T04:28:41.760Z,25.33
2018-09-15T04:31:12.182Z,24.80
2018-09-15T04:33:41.951Z,25.83
2018-09-15T04:36:11.761Z,23.17
2018-09-15T04:38:41.841Z,23.87
2018-09-15T04:41:11.468Z,31.77
2018-09-15T04:43:41.332Z,31.43
2018-09-15T04:46:11.724Z,30.57
2018-09-15T04:48:41.360Z,37.93
2018-09-15T04:51:10.801Z,28.37
2018-09-15T04:53:41.039Z,27.53
2018-09-15T04:56:10.761Z,30.07
2018-09-15T04:58:40.466Z,27.73
2018-09-15T05:01:10.127Z,27.17
2018-09-15T05:03:40.426Z,22.67
2018-09-15T05:06:09.956Z,23.23
2018-09-15T05:08:39.476Z,22.07
2018-09-15T05:11:09.258Z,27.27
2018-09-15T05:13:39.313Z,22.40
2018-09-15T05:16:09.535Z,23.43
2018-09-15T05:18:39.761Z,25.63
2018-09-15T05:21:09.501Z,28.03
2018-09-15T05:23:39.753Z,24.20
2018-09-15T05:26:09.325Z,23.60
2018-09-15T05:28:39.121Z,23.27
2018-09-15T05:31:09.360Z,26.63
2018-09-15T05:33:38.967Z,25.97
2018-09-15T05:36:08.423Z,30.70
2018-09-15T05:38:38.141Z,34.80
2018-09-15T05:41:08.387Z,34.67
2018-09-15T05:43:37.837Z,39.10
2018-09-15T05:46:07.583Z,40.10
2018-09-15T05:48:37.323Z,39.00
2018-09-15T05:51:07.435Z,42.97
2018-09-15T05:53:37.883Z,42.47
2018-09-15T05:56:07.588Z,41.57
2018-09-15T05:58:37.223Z,44.87
2018-09-15T06:01:18.262Z,43.83
2018-09-15T06:03:48.545Z,41.77
2018-09-15T06:06:18.306Z,39.83
2018-09-15T06:08:48.109Z,40.83
2018-09-15T06:11:17.675Z,41.30
2018-09-15T06:13:47.251Z,47.97
2018-09-15T06:16:17.467Z,50.87
2018-09-15T06:18:47.362Z,47.43
2018-09-15T06:21:17.926Z,41.93
2018-09-15T06:23:47.492Z,43.17
2018-09-15T06:26:17.446Z,41.10
2018-09-15T06:28:48.713Z,41.13
2018-09-15T06:31:18.347Z,39.93
2018-09-15T06:33:49.104Z,40.50
2018-09-15T06:36:18.700Z,34.77
2018-09-15T06:38:48.339Z,39.20
2018-09-15T06:41:17.904Z,36.77
2018-09-15T06:43:47.409Z,36.87
2018-09-15T06:46:17.345Z,34.93
2018-09-15T06:48:47.647Z,33.40
2018-09-15T06:51:17.691Z,34.60
2018-09-15T06:53:48.380Z,36.70
2018-09-15T06:56:18.447Z,29.50
2018-09-15T06:58:48.163Z,30.50
2018-09-15T07:01:18.028Z,32.40
2018-09-15T07:03:47.807Z,30.70
2018-09-15T07:06:18.007Z,28.17
2018-09-15T07:08:47.913Z,27.13
2018-09-15T07:11:17.721Z,27.53
2018-09-15T07:13:55.716Z,26.37
2018-09-15T07:16:26.445Z,25.70
2018-09-15T07:18:58.270Z,30.30
2018-09-15T07:21:27.825Z,28.17
2018-09-15T07:23:57.800Z,28.70
2018-09-15T07:26:27.451Z,24.47
2018-09-15T07:28:58.523Z,26.37
2018-09-15T07:31:28.931Z,23.93
2018-09-15T07:34:01.086Z,24.07
2018-09-15T07:36:30.890Z,23.63
2018-09-15T07:39:00.520Z,26.27
2018-09-15T07:41:30.363Z,25.67
2018-09-15T07:44:01.654Z,24.30
2018-09-15T07:46:31.485Z,22.80
2018-09-15T07:49:04.116Z,26.93
2018-09-15T07:51:37.500Z,27.63
2018-09-15T07:54:19.865Z,23.40
2018-09-15T07:56:49.782Z,19.77
2018-09-15T07:59:20.110Z,25.43
2018-09-15T08:01:51.331Z,23.03
2018-09-15T08:04:21.374Z,22.63
2018-09-15T08:06:52.063Z,24.50
2018-09-15T08:09:21.737Z,25.43
2018-09-15T08:11:54.631Z,21.53
2018-09-15T08:14:24.858Z,22.23
2018-09-15T08:16:56.195Z,19.37
2018-09-15T08:19:27.690Z,20.60
2018-09-15T08:21:59.585Z,21.80
2018-09-15T08:24:30.390Z,18.87
2018-09-15T08:27:08.488Z,19.80
2018-09-15T08:29:40.100Z,18.37
2018-09-15T08:32:16.265Z,17.50
2018-09-15T08:34:46.933Z,20.83
2018-09-15T08:37:17.763Z,18.67
2018-09-15T08:39:48.985Z,17.93
2018-09-15T08:42:19.026Z,19.20
2018-09-15T08:44:50.946Z,17.43
2018-09-15T08:47:21.175Z,23.23
2018-09-15T08:49:51.653Z,18.30
2018-09-15T08:52:22.753Z,19.57
2018-09-15T08:54:53.166Z,19.27
2018-09-15T08:57:23.500Z,19.57
2018-09-15T08:59:54.266Z,18.13
2018-09-15T09:02:23.878Z,17.20
2018-09-15T09:04:54.000Z,19.63
2018-09-15T09:07:25.342Z,18.30
2018-09-15T09:09:55.161Z,15.27
2018-09-15T09:12:24.814Z,17.07
2018-09-15T09:14:54.540Z,16.77
2018-09-15T09:17:26.040Z,18.57
2018-09-15T09:19:56.481Z,15.97
2018-09-15T09:22:29.373Z,17.87
2018-09-15T09:25:00.350Z,16.37
2018-09-15T09:27:30.242Z,16.37
2018-09-15T09:29:59.879Z,16.40
2018-09-15T09:32:30.378Z,17.23
2018-09-15T09:35:02.414Z,16.17
2018-09-15T09:37:32.185Z,18.53
2018-09-15T09:40:01.795Z,18.67
2018-09-15T09:42:33.519Z,16.67
2018-09-15T09:45:03.059Z,17.87
2018-09-15T09:47:33.947Z,16.30
2018-09-15T09:50:07.027Z,14.93
2018-09-15T09:52:41.645Z,13.97
2018-09-15T09:55:12.271Z,17.03
2018-09-15T09:57:41.955Z,14.77
2018-09-15T10:00:15.770Z,15.47
2018-09-15T10:02:46.007Z,12.37
2018-09-15T10:05:17.371Z,14.73
2018-09-15T10:07:47.137Z,13.07
2018-09-15T10:10:16.847Z,11.87
2018-09-15T10:12:46.646Z,12.63
2018-09-15T10:15:16.444Z,13.40
2018-09-15T10:17:46.125Z,15.67
2018-09-15T10:20:15.848Z,10.50
2018-09-15T10:22:45.912Z,13.03
2018-09-15T10:25:16.592Z,13.47
2018-09-15T10:27:46.242Z,12.87
2018-09-15T10:30:16.706Z,11.17
2018-09-15T10:32:47.490Z,11.93
2018-09-15T10:35:17.611Z,12.03
2018-09-15T10:37:47.458Z,11.40
2018-09-15T10:40:17.358Z,12.27
2018-09-15T10:42:47.064Z,11.47
2018-09-15T10:45:18.411Z,14.73
2018-09-15T10:47:48.649Z,11.87
2018-09-15T10:50:18.901Z,12.40
2018-09-15T10:52:49.839Z,12.87
2018-09-15T10:55:19.485Z,13.13
2018-09-15T10:57:49.158Z,9.90
2018-09-15T11:00:34.148Z,13.10
2018-09-15T11:03:05.200Z,13.23
2018-09-15T11:05:37.197Z,10.50
2018-09-15T11:08:09.229Z,10.40
2018-09-15T11:10:38.943Z,12.27
2018-09-15T11:13:08.725Z,10.67
2018-09-15T11:15:39.509Z,12.37
2018-09-15T11:18:09.005Z,16.00
2018-09-15T11:20:39.200Z,11.80
2018-09-15T11:23:08.822Z,11.00
2018-09-15T11:25:39.341Z,12.70
2018-09-15T11:28:09.245Z,12.20
2018-09-15T11:30:38.765Z,10.80
2018-09-15T11:33:08.631Z,12.80
2018-09-15T11:35:38.191Z,11.93
2018-09-15T11:38:07.909Z,8.67
2018-09-15T11:40:37.571Z,11.93
2018-09-15T11:43:07.404Z,10.80
2018-09-15T11:45:37.466Z,11.00
2018-09-15T11:48:07.868Z,10.90
2018-09-15T11:50:37.690Z,9.37
2018-09-15T11:53:07.498Z,8.83
2018-09-15T11:55:37.402Z,7.43
2018-09-15T11:58:07.815Z,7.83
2018-09-15T12:00:40.441Z,6.27
2018-09-15T12:03:13.620Z,7.37
2018-09-15T12:05:43.017Z,7.33
2018-09-15T12:08:17.671Z,6.00
2018-09-15T12:10:47.786Z,8.20
2018-09-15T12:13:17.533Z,7.13
2018-09-15T12:15:47.889Z,7.37
2018-09-15T12:18:18.381Z,6.80
2018-09-15T12:20:48.849Z,8.17
2018-09-15T12:23:18.636Z,5.90
2018-09-15T12:25:49.059Z,6.83
2018-09-15T12:28:18.733Z,6.50
2018-09-15T12:30:49.813Z,6.60
2018-09-15T12:33:19.368Z,9.70
2018-09-15T12:35:49.283Z,8.50
2018-09-15T12:38:20.419Z,6.73
2018-09-15T12:40:50.998Z,7.93
2018-09-15T12:43:20.446Z,6.53
2018-09-15T12:45:50.383Z,6.90
2018-09-15T12:48:21.558Z,8.53
2018-09-15T12:50:53.593Z,7.77
2018-09-15T12:53:28.073Z,7.40
2018-09-15T12:55:59.458Z,7.47
2018-09-15T12:58:29.292Z,6.27
2018-09-15T13:00:58.839Z,6.67
2018-09-15T13:03:28.386Z,7.17
2018-09-15T13:06:00.611Z,7.77
2018-09-15T13:08:31.190Z,6.03
2018-09-15T13:11:03.226Z,6.73
2018-09-15T13:13:33.672Z,9.40
2018-09-15T13:16:03.942Z,10.33
2018-09-15T13:18:34.175Z,5.73
2018-09-15T13:21:05.020Z,6.60
2018-09-15T13:23:35.065Z,5.83
2018-09-15T13:26:10.467Z,6.80
2018-09-15T13:28:40.312Z,6.13
2018-09-15T13:31:09.957Z,5.83
2018-09-15T13:33:40.369Z,7.60
2018-09-15T13:36:10.617Z,5.03
2018-09-15T13:38:41.831Z,5.53
2018-09-15T13:41:12.552Z,6.00
2018-09-15T13:43:42.727Z,6.23
2018-09-15T13:46:14.345Z,7.63
2018-09-15T13:48:44.249Z,7.43
2018-09-15T13:51:14.813Z,7.23
2018-09-15T13:53:44.679Z,7.87
2018-09-15T13:56:14.393Z,6.00
2018-09-15T13:58:44.297Z,5.90
2018-09-15T14:01:13.799Z,7.57
2018-09-15T14:03:43.286Z,5.83
2018-09-15T14:06:13.308Z,5.03
2018-09-15T14:08:43.555Z,5.60
2018-09-15T14:11:13.207Z,4.93
2018-09-15T14:13:42.942Z,7.30
2018-09-15T14:16:12.975Z,4.60
2018-09-15T14:18:43.041Z,5.43
2018-09-15T14:21:13.450Z,5.50
2018-09-15T14:23:45.221Z,4.90
2018-09-15T14:26:14.838Z,8.00
2018-09-15T14:28:55.451Z,5.30
2018-09-15T14:31:25.883Z,5.63
2018-09-15T14:33:56.225Z,6.63
2018-09-15T14:36:25.942Z,7.57
2018-09-15T14:38:56.195Z,6.70
2018-09-15T14:41:26.490Z,7.43
2018-09-15T14:43:55.883Z,6.27
2018-09-15T14:46:31.808Z,5.37
2018-09-15T14:49:01.581Z,5.50
2018-09-15T14:51:31.850Z,6.67
2018-09-15T14:54:02.432Z,7.83
2018-09-15T14:56:32.398Z,7.03
2018-09-15T14:59:06.945Z,7.03
2018-09-15T15:01:43.763Z,6.50
2018-09-15T15:04:13.641Z,6.37
2018-09-15T15:06:43.761Z,8.60
2018-09-15T15:09:14.293Z,5.80
2018-09-15T15:11:44.127Z,5.57
2018-09-15T15:14:14.355Z,10.17
2018-09-15T15:19:16.519Z,6.17
2018-09-15T15:21:46.235Z,5.33
2018-09-15T15:24:15.829Z,8.03
2018-09-15T15:26:46.676Z,5.20
2018-09-15T15:29:16.946Z,6.20
2018-09-15T15:31:48.181Z,6.30
2018-09-15T15:34:18.156Z,7.93
2018-09-15T15:36:48.127Z,5.63
2018-09-15T15:39:18.051Z,6.40
2018-09-15T15:41:47.844Z,7.30
2018-09-15T15:44:18.011Z,5.63
2018-09-15T15:46:49.290Z,6.70
2018-09-15T15:49:18.961Z,5.77
2018-09-15T15:51:48.716Z,6.10
2018-09-15T15:54:18.844Z,5.27
2018-09-15T15:56:48.457Z,7.13
2018-09-15T15:59:19.023Z,5.30
2018-09-15T16:01:49.296Z,6.00
2018-09-15T16:04:21.340Z,7.80
2018-09-15T16:06:50.962Z,5.97
2018-09-15T16:09:20.662Z,7.47
2018-09-15T16:11:51.064Z,5.63
2018-09-15T16:14:21.726Z,5.53
2018-09-15T16:16:52.148Z,6.57
2018-09-15T16:19:23.840Z,6.47
2018-09-15T16:21:53.460Z,6.37
2018-09-15T16:24:23.231Z,4.20
2018-09-15T16:26:52.916Z,5.87
2018-09-15T16:29:22.551Z,9.23
2018-09-15T16:31:52.199Z,4.77
2018-09-15T16:34:22.048Z,6.30
2018-09-15T16:36:51.904Z,9.77
2018-09-15T16:39:22.087Z,5.73
2018-09-15T16:41:51.660Z,5.87
2018-09-15T16:44:21.523Z,6.53
2018-09-15T16:46:51.514Z,5.13
2018-09-15T16:49:25.405Z,5.80
2018-09-15T16:51:55.551Z,5.87
2018-09-15T16:54:27.106Z,4.90
2018-09-15T16:56:59.884Z,7.43
2018-09-15T16:59:29.578Z,8.83
2018-09-15T17:01:59.159Z,6.40
2018-09-15T17:04:28.959Z,6.37
2018-09-15T17:06:59.649Z,9.00
2018-09-15T17:09:29.677Z,6.80
2018-09-15T17:12:00.580Z,8.70
2018-09-15T17:14:30.772Z,12.17
2018-09-15T17:17:00.374Z,8.10
2018-09-15T17:19:31.230Z,12.47
2018-09-15T17:22:02.804Z,7.03
2018-09-15T17:24:34.218Z,6.33
2018-09-15T17:27:07.261Z,4.30
2018-09-15T17:29:37.373Z,11.00
2018-09-15T17:32:07.475Z,4.60
2018-09-15T17:34:37.723Z,10.80
2018-09-15T17:37:07.447Z,11.80
2018-09-15T17:39:37.122Z,5.70
2018-09-15T17:42:07.121Z,6.43
2018-09-15T17:44:37.595Z,6.47
2018-09-15T17:47:08.593Z,5.43
2018-09-15T17:49:39.181Z,10.70
2018-09-15T17:52:13.303Z,7.93
2018-09-15T17:54:43.489Z,8.37
2018-09-15T17:57:14.626Z,7.67
2018-09-15T17:59:55.711Z,11.33
2018-09-15T18:02:26.966Z,8.07
2018-09-15T18:04:56.972Z,11.67
2018-09-15T18:07:28.480Z,8.27
2018-09-15T18:09:59.694Z,9.13
2018-09-15T18:12:34.580Z,7.87
2018-09-15T18:15:10.356Z,6.03
2018-09-15T18:17:40.736Z,7.33
2018-09-15T18:20:14.584Z,8.10
2018-09-15T18:22:44.493Z,7.97
2018-09-15T18:25:14.617Z,7.87
2018-09-15T18:27:45.259Z,7.00
2018-09-15T18:30:14.955Z,7.93
2018-09-15T18:32:55.226Z,11.93
2018-09-15T18:35:25.274Z,10.00
2018-09-15T18:37:56.307Z,9.50
2018-09-15T18:40:29.444Z,7.10
2018-09-15T18:43:05.746Z,9.80
2018-09-15T18:45:35.869Z,9.53
2018-09-15T18:48:06.834Z,10.37
2018-09-15T18:50:38.645Z,8.37
2018-09-15T18:53:08.525Z,5.30
2018-09-15T18:55:40.027Z,7.13
2018-09-15T18:58:12.556Z,9.40
2018-09-15T19:00:42.115Z,10.80
2018-09-15T19:03:16.200Z,7.57
2018-09-15T19:05:47.538Z,7.83
2018-09-15T19:08:18.039Z,8.20
2018-09-15T19:10:48.025Z,8.03
2018-09-15T19:13:17.667Z,9.13
2018-09-15T19:15:49.043Z,8.83
2018-09-15T19:18:19.123Z,7.60
2018-09-15T19:20:49.502Z,6.63
2018-09-15T19:23:19.082Z,8.60
2018-09-15T19:25:48.740Z,6.80
2018-09-15T19:28:18.703Z,4.90
2018-09-15T19:30:51.868Z,8.73
2018-09-15T19:33:22.309Z,4.87
2018-09-15T19:35:52.117Z,6.30
2018-09-15T19:38:22.272Z,11.87
2018-09-15T19:40:52.070Z,8.40
2018-09-15T19:43:27.974Z,10.43
2018-09-15T19:45:57.922Z,7.73
2018-09-15T19:48:32.086Z,8.00
2018-09-15T19:51:05.450Z,8.13
2018-09-15T19:53:36.385Z,7.80
2018-09-15T19:56:06.653Z,8.13
2018-09-15T19:58:36.192Z,9.67
2018-09-15T20:01:07.997Z,8.50
2018-09-15T20:03:38.076Z,9.50
2018-09-15T20:06:07.565Z,8.00
2018-09-15T20:08:37.143Z,5.97
2018-09-15T20:11:06.838Z,8.40
2018-09-15T20:13:36.858Z,7.00
2018-09-15T20:16:04.748Z,7.57
2018-09-15T20:18:32.570Z,6.57
2018-09-15T20:21:00.894Z,7.80
2018-09-15T20:23:30.413Z,6.67
2018-09-15T20:26:01.347Z,12.67
2018-09-15T20:28:31.079Z,11.73
2018-09-15T20:31:00.737Z,9.87
2018-09-15T20:33:30.411Z,10.23
2018-09-15T20:36:00.439Z,11.27
2018-09-15T20:38:30.221Z,8.77
2018-09-15T20:40:59.920Z,9.07
2018-09-15T20:43:29.697Z,10.97
2018-09-15T20:45:59.345Z,11.03
2018-09-15T20:48:29.397Z,7.93
2018-09-15T20:50:59.542Z,15.77
2018-09-15T20:53:29.567Z,12.77
2018-09-15T20:56:00.727Z,9.60
2018-09-15T20:58:30.424Z,9.90
2018-09-15T21:01:00.959Z,11.77
2018-09-15T21:03:32.447Z,10.53
2018-09-15T21:06:02.799Z,12.07
2018-09-15T21:08:33.666Z,8.43
2018-09-15T21:11:03.224Z,9.43
2018-09-15T21:13:32.778Z,6.93
2018-09-15T21:16:03.220Z,11.93
2018-09-15T21:18:32.864Z,8.87
2018-09-15T21:21:02.429Z,10.10
2018-09-15T21:23:32.033Z,9.97
2018-09-15T21:26:01.743Z,11.47
2018-09-15T21:28:32.181Z,10.13
2018-09-15T21:31:01.883Z,8.93
2018-09-15T21:33:36.997Z,11.40
2018-09-15T21:36:07.082Z,10.43
2018-09-15T21:38:37.488Z,8.93
2018-09-15T21:41:08.600Z,10.77
2018-09-15T21:43:38.481Z,14.07
2018-09-15T21:46:08.303Z,13.40
2018-09-15T21:48:38.916Z,11.70
2018-09-15T21:51:09.012Z,9.10
2018-09-15T21:53:40.076Z,11.90
2018-09-15T21:56:11.199Z,14.40
2018-09-15T21:58:41.218Z,11.53
2018-09-15T22:01:11.753Z,9.67
2018-09-15T22:03:46.613Z,14.53
2018-09-15T22:06:16.928Z,9.07
2018-09-15T22:08:47.288Z,11.30
2018-09-15T22:11:17.267Z,8.70
2018-09-15T22:13:47.663Z,12.43
2018-09-15T22:16:17.737Z,15.57
2018-09-15T22:18:54.005Z,10.73
2018-09-15T22:21:23.863Z,13.47
2018-09-15T22:23:54.742Z,12.80
2018-09-15T22:26:25.285Z,11.80
2018-09-15T22:28:55.519Z,10.53
2018-09-15T22:31:28.482Z,8.03
2018-09-15T22:34:01.066Z,10.70
2018-09-15T22:36:31.003Z,13.87
2018-09-15T22:39:00.929Z,13.33
2018-09-15T22:41:31.284Z,9.07
2018-09-15T22:44:00.906Z,15.00
2018-09-15T22:46:31.205Z,14.97
2018-09-15T22:49:01.588Z,14.80
2018-09-15T22:51:31.232Z,9.50
2018-09-15T22:54:01.003Z,8.90
2018-09-15T22:56:30.618Z,12.93
2018-09-15T22:59:00.413Z,11.63
2018-09-15T23:01:30.782Z,9.43
2018-09-15T23:04:06.221Z,10.90
2018-09-15T23:06:36.634Z,11.17
2018-09-15T23:09:08.694Z,11.53
2018-09-15T23:11:38.571Z,14.70
2018-09-15T23:14:09.272Z,18.80
2018-09-15T23:16:39.335Z,17.77
2018-09-15T23:19:09.295Z,20.60
2018-09-15T23:21:38.753Z,20.23
2018-09-15T23:24:08.358Z,21.80
2018-09-15T23:26:38.506Z,21.47
2018-09-15T23:29:08.171Z,9.47
2018-09-15T23:31:37.901Z,10.80
2018-09-15T23:34:08.742Z,8.43
2018-09-15T23:36:38.911Z,7.97
2018-09-15T23:39:09.821Z,10.43
2018-09-15T23:41:39.440Z,11.00
2018-09-15T23:44:09.119Z,9.33
2018-09-15T23:46:38.829Z,11.67
2018-09-15T23:49:08.784Z,10.47
2018-09-15T23:51:38.536Z,12.83
2018-09-15T23:54:09.351Z,13.10
2018-09-15T23:56:39.038Z,13.40
2018-09-15T23:59:08.845Z,14.30
